sensor_id;sensor_type;location;lat;lon;timestamp;P1;durP1;ratioP1;P2;durP2;ratioP2
24159;SDS011;62385;41.594;23.808;2022-08-01T00:00:44;11.85;;;9.57;;
24159;SDS011;62385;41.594;23.808;2022-08-01T00:03:09;11.38;;;10.18;;
24159;SDS011;62385;41.594;23.808;2022-08-01T00:05:35;12.10;;;10.68;;
24159;SDS011;62385;41.594;23.808;2022-08-01T00:08:00;11.18;;;9.70;;
24159;SDS011;62385;41.594;23.808;2022-08-01T00:10:26;11.18;;;9.95;;
24159;SDS011;62385;41.594;23.808;2022-08-01T00:12:52;14.65;;;10.35;;
24159;SDS011;62385;41.594;23.808;2022-08-01T00:15:18;13.10;;;10.32;;
24159;SDS011;62385;41.594;23.808;2022-08-01T00:17:43;11.60;;;10.15;;
24159;SDS011;62385;41.594;23.808;2022-08-01T00:20:10;11.80;;;10.60;;
24159;SDS011;62385;41.594;23.808;2022-08-01T00:22:38;11.93;;;10.23;;
24159;SDS011;62385;41.594;23.808;2022-08-01T00:25:04;13.23;;;10.55;;
24159;SDS011;62385;41.594;23.808;2022-08-01T00:27:31;14.25;;;9.88;;
24159;SDS011;62385;41.594;23.808;2022-08-01T00:29:57;14.88;;;10.30;;
24159;SDS011;62385;41.594;23.808;2022-08-01T00:32:23;15.45;;;11.07;;
24159;SDS011;62385;41.594;23.808;2022-08-01T00:34:49;12.10;;;10.60;;
24159;SDS011;62385;41.594;23.808;2022-08-01T00:37:15;13.20;;;10.25;;
24159;SDS011;62385;41.594;23.808;2022-08-01T00:39:41;11.88;;;10.52;;
24159;SDS011;62385;41.594;23.808;2022-08-01T00:42:11;14.30;;;10.90;;
24159;SDS011;62385;41.594;23.808;2022-08-01T00:44:38;10.80;;;9.68;;
24159;SDS011;62385;41.594;23.808;2022-08-01T00:47:04;12.82;;;9.90;;
24159;SDS011;62385;41.594;23.808;2022-08-01T00:49:31;13.85;;;10.00;;
24159;SDS011;62385;41.594;23.808;2022-08-01T00:51:57;11.88;;;10.25;;
24159;SDS011;62385;41.594;23.808;2022-08-01T00:54:24;12.23;;;10.82;;
24159;SDS011;62385;41.594;23.808;2022-08-01T00:56:51;13.05;;;10.93;;
24159;SDS011;62385;41.594;23.808;2022-08-01T00:59:17;12.70;;;10.80;;
24159;SDS011;62385;41.594;23.808;2022-08-01T01:01:43;12.52;;;10.93;;
24159;SDS011;62385;41.594;23.808;2022-08-01T01:04:09;15.20;;;10.45;;
24159;SDS011;62385;41.594;23.808;2022-08-01T01:06:57;12.77;;;11.38;;
24159;SDS011;62385;41.594;23.808;2022-08-01T01:17:28;14.00;;;11.43;;
24159;SDS011;62385;41.594;23.808;2022-08-01T01:20:00;13.90;;;11.38;;
24159;SDS011;62385;41.594;23.808;2022-08-01T01:22:41;14.07;;;11.40;;
24159;SDS011;62385;41.594;23.808;2022-08-01T01:25:23;13.90;;;10.85;;
24159;SDS011;62385;41.594;23.808;2022-08-01T01:30:34;13.65;;;11.75;;
24159;SDS011;62385;41.594;23.808;2022-08-01T01:33:03;17.13;;;11.70;;
24159;SDS011;62385;41.594;23.808;2022-08-01T01:35:32;11.73;;;10.52;;
24159;SDS011;62385;41.594;23.808;2022-08-01T01:38:05;13.88;;;10.75;;
24159;SDS011;62385;41.594;23.808;2022-08-01T01:40:34;15.27;;;11.15;;
24159;SDS011;62385;41.594;23.808;2022-08-01T01:43:02;15.13;;;11.52;;
24159;SDS011;62385;41.594;23.808;2022-08-01T01:45:27;14.35;;;10.90;;
24159;SDS011;62385;41.594;23.808;2022-08-01T01:47:54;14.63;;;10.90;;
24159;SDS011;62385;41.594;23.808;2022-08-01T01:50:22;13.88;;;11.43;;
24159;SDS011;62385;41.594;23.808;2022-08-01T01:52:49;14.38;;;10.52;;
24159;SDS011;62385;41.594;23.808;2022-08-01T01:55:16;13.18;;;10.63;;
24159;SDS011;62385;41.594;23.808;2022-08-01T01:57:44;12.90;;;10.95;;
24159;SDS011;62385;41.594;23.808;2022-08-01T02:00:11;12.63;;;11.10;;
24159;SDS011;62385;41.594;23.808;2022-08-01T02:02:39;13.00;;;10.70;;
24159;SDS011;62385;41.594;23.808;2022-08-01T02:05:08;15.88;;;11.18;;
24159;SDS011;62385;41.594;23.808;2022-08-01T02:07:35;14.48;;;10.98;;
24159;SDS011;62385;41.594;23.808;2022-08-01T02:10:03;15.52;;;11.50;;
24159;SDS011;62385;41.594;23.808;2022-08-01T02:12:32;12.75;;;10.90;;
24159;SDS011;62385;41.594;23.808;2022-08-01T02:15:00;14.05;;;11.10;;
24159;SDS011;62385;41.594;23.808;2022-08-01T02:17:27;12.60;;;10.98;;
24159;SDS011;62385;41.594;23.808;2022-08-01T02:19:54;15.60;;;11.13;;
24159;SDS011;62385;41.594;23.808;2022-08-01T02:22:31;13.10;;;10.90;;
24159;SDS011;62385;41.594;23.808;2022-08-01T02:25:03;12.38;;;11.02;;
24159;SDS011;62385;41.594;23.808;2022-08-01T02:27:42;11.68;;;10.48;;
24159;SDS011;62385;41.594;23.808;2022-08-01T02:30:13;11.95;;;10.23;;
24159;SDS011;62385;41.594;23.808;2022-08-01T02:32:47;11.95;;;10.75;;
24159;SDS011;62385;41.594;23.808;2022-08-01T02:35:23;13.02;;;10.93;;
24159;SDS011;62385;41.594;23.808;2022-08-01T02:37:52;12.07;;;10.80;;
24159;SDS011;62385;41.594;23.808;2022-08-01T02:40:19;16.50;;;11.25;;
24159;SDS011;62385;41.594;23.808;2022-08-01T02:42:46;15.43;;;10.70;;
24159;SDS011;62385;41.594;23.808;2022-08-01T02:45:15;12.63;;;10.75;;
24159;SDS011;62385;41.594;23.808;2022-08-01T02:47:44;13.15;;;10.95;;
24159;SDS011;62385;41.594;23.808;2022-08-01T02:50:10;14.60;;;10.18;;
24159;SDS011;62385;41.594;23.808;2022-08-01T02:52:38;11.40;;;10.13;;
24159;SDS011;62385;41.594;23.808;2022-08-01T02:55:07;11.43;;;10.23;;
24159;SDS011;62385;41.594;23.808;2022-08-01T02:57:35;13.32;;;11.27;;
24159;SDS011;62385;41.594;23.808;2022-08-01T03:00:03;14.65;;;11.35;;
24159;SDS011;62385;41.594;23.808;2022-08-01T03:02:31;12.63;;;10.85;;
24159;SDS011;62385;41.594;23.808;2022-08-01T03:04:59;13.80;;;10.90;;
24159;SDS011;62385;41.594;23.808;2022-08-01T03:07:26;14.20;;;10.32;;
24159;SDS011;62385;41.594;23.808;2022-08-01T03:09:55;13.52;;;10.85;;
24159;SDS011;62385;41.594;23.808;2022-08-01T03:12:25;15.65;;;11.57;;
24159;SDS011;62385;41.594;23.808;2022-08-01T03:14:53;16.38;;;10.57;;
24159;SDS011;62385;41.594;23.808;2022-08-01T03:17:21;12.25;;;10.65;;
24159;SDS011;62385;41.594;23.808;2022-08-01T03:19:49;11.30;;;10.10;;
24159;SDS011;62385;41.594;23.808;2022-08-01T03:22:17;13.30;;;10.73;;
24159;SDS011;62385;41.594;23.808;2022-08-01T03:24:44;12.43;;;11.15;;
24159;SDS011;62385;41.594;23.808;2022-08-01T03:27:14;12.93;;;10.45;;
24159;SDS011;62385;41.594;23.808;2022-08-01T03:29:41;18.02;;;11.55;;
24159;SDS011;62385;41.594;23.808;2022-08-01T03:32:10;14.25;;;10.65;;
24159;SDS011;62385;41.594;23.808;2022-08-01T03:34:37;11.70;;;10.50;;
24159;SDS011;62385;41.594;23.808;2022-08-01T03:40:03;13.82;;;10.50;;
24159;SDS011;62385;41.594;23.808;2022-08-01T03:42:33;13.15;;;10.25;;
24159;SDS011;62385;41.594;23.808;2022-08-01T03:45:03;12.30;;;10.90;;
24159;SDS011;62385;41.594;23.808;2022-08-01T03:47:32;11.55;;;10.32;;
24159;SDS011;62385;41.594;23.808;2022-08-01T03:50:04;13.00;;;10.88;;
24159;SDS011;62385;41.594;23.808;2022-08-01T03:52:32;10.90;;;9.80;;
24159;SDS011;62385;41.594;23.808;2022-08-01T03:55:01;11.90;;;10.70;;
24159;SDS011;62385;41.594;23.808;2022-08-01T03:57:30;12.15;;;10.95;;
24159;SDS011;62385;41.594;23.808;2022-08-01T03:59:59;11.75;;;10.35;;
24159;SDS011;62385;41.594;23.808;2022-08-01T04:02:26;12.20;;;10.90;;
24159;SDS011;62385;41.594;23.808;2022-08-01T04:04:52;13.15;;;10.57;;
24159;SDS011;62385;41.594;23.808;2022-08-01T04:07:26;13.80;;;10.38;;
24159;SDS011;62385;41.594;23.808;2022-08-01T04:09:53;12.70;;;11.40;;
24159;SDS011;62385;41.594;23.808;2022-08-01T04:12:19;12.30;;;10.57;;
24159;SDS011;62385;41.594;23.808;2022-08-01T04:14:44;12.77;;;11.13;;
24159;SDS011;62385;41.594;23.808;2022-08-01T04:17:11;15.05;;;10.98;;
24159;SDS011;62385;41.594;23.808;2022-08-01T04:19:36;12.50;;;10.77;;
24159;SDS011;62385;41.594;23.808;2022-08-01T04:22:02;16.20;;;10.60;;
24159;SDS011;62385;41.594;23.808;2022-08-01T04:24:28;11.57;;;10.48;;
24159;SDS011;62385;41.594;23.808;2022-08-01T04:26:58;11.70;;;10.07;;
24159;SDS011;62385;41.594;23.808;2022-08-01T04:29:25;11.68;;;9.82;;
24159;SDS011;62385;41.594;23.808;2022-08-01T04:31:54;12.65;;;11.27;;
24159;SDS011;62385;41.594;23.808;2022-08-01T04:34:22;11.98;;;10.57;;
24159;SDS011;62385;41.594;23.808;2022-08-01T04:36:51;13.95;;;10.90;;
24159;SDS011;62385;41.594;23.808;2022-08-01T04:39:19;11.05;;;9.95;;
24159;SDS011;62385;41.594;23.808;2022-08-01T04:41:48;12.55;;;10.68;;
24159;SDS011;62385;41.594;23.808;2022-08-01T04:44:17;11.20;;;10.02;;
24159;SDS011;62385;41.594;23.808;2022-08-01T04:46:42;12.00;;;10.13;;
24159;SDS011;62385;41.594;23.808;2022-08-01T04:49:10;11.48;;;10.30;;
24159;SDS011;62385;41.594;23.808;2022-08-01T04:51:36;11.48;;;10.27;;
24159;SDS011;62385;41.594;23.808;2022-08-01T04:54:14;10.82;;;9.73;;
24159;SDS011;62385;41.594;23.808;2022-08-01T04:56:40;12.00;;;10.27;;
24159;SDS011;62385;41.594;23.808;2022-08-01T04:59:07;13.07;;;10.25;;
24159;SDS011;62385;41.594;23.808;2022-08-01T05:01:51;11.80;;;10.48;;
24159;SDS011;62385;41.594;23.808;2022-08-01T05:04:17;13.55;;;11.38;;
24159;SDS011;62385;41.594;23.808;2022-08-01T05:06:44;12.85;;;10.80;;
24159;SDS011;62385;41.594;23.808;2022-08-01T05:09:10;18.55;;;11.88;;
24159;SDS011;62385;41.594;23.808;2022-08-01T05:11:35;14.15;;;12.27;;
24159;SDS011;62385;41.594;23.808;2022-08-01T05:14:01;13.13;;;11.18;;
24159;SDS011;62385;41.594;23.808;2022-08-01T05:16:26;12.10;;;10.90;;
24159;SDS011;62385;41.594;23.808;2022-08-01T05:18:52;13.70;;;11.25;;
24159;SDS011;62385;41.594;23.808;2022-08-01T05:21:36;12.98;;;11.68;;
24159;SDS011;62385;41.594;23.808;2022-08-01T05:24:03;13.98;;;11.23;;
24159;SDS011;62385;41.594;23.808;2022-08-01T05:26:31;12.73;;;11.43;;
24159;SDS011;62385;41.594;23.808;2022-08-01T05:28:58;12.88;;;10.85;;
24159;SDS011;62385;41.594;23.808;2022-08-01T05:31:24;11.85;;;10.65;;
24159;SDS011;62385;41.594;23.808;2022-08-01T05:33:50;12.20;;;11.00;;
24159;SDS011;62385;41.594;23.808;2022-08-01T05:36:15;12.07;;;10.88;;
24159;SDS011;62385;41.594;23.808;2022-08-01T05:38:41;12.07;;;10.48;;
24159;SDS011;62385;41.594;23.808;2022-08-01T05:41:06;11.25;;;10.15;;
24159;SDS011;62385;41.594;23.808;2022-08-01T05:43:33;13.70;;;9.63;;
24159;SDS011;62385;41.594;23.808;2022-08-01T05:45:59;10.95;;;9.85;;
24159;SDS011;62385;41.594;23.808;2022-08-01T05:48:26;10.35;;;9.27;;
24159;SDS011;62385;41.594;23.808;2022-08-01T05:50:51;11.93;;;9.80;;
24159;SDS011;62385;41.594;23.808;2022-08-01T05:53:17;14.65;;;9.63;;
24159;SDS011;62385;41.594;23.808;2022-08-01T05:55:43;10.10;;;8.10;;
24159;SDS011;62385;41.594;23.808;2022-08-01T05:58:08;10.10;;;9.05;;
24159;SDS011;62385;41.594;23.808;2022-08-01T06:00:34;9.48;;;8.57;;
24159;SDS011;62385;41.594;23.808;2022-08-01T06:02:59;8.57;;;7.78;;
24159;SDS011;62385;41.594;23.808;2022-08-01T06:05:25;9.00;;;7.72;;
24159;SDS011;62385;41.594;23.808;2022-08-01T06:07:51;8.98;;;8.07;;
24159;SDS011;62385;41.594;23.808;2022-08-01T06:10:17;7.63;;;6.82;;
24159;SDS011;62385;41.594;23.808;2022-08-01T06:12:43;7.60;;;6.93;;
24159;SDS011;62385;41.594;23.808;2022-08-01T06:15:09;7.63;;;6.93;;
24159;SDS011;62385;41.594;23.808;2022-08-01T06:17:35;10.00;;;6.82;;
24159;SDS011;62385;41.594;23.808;2022-08-01T06:20:00;9.00;;;6.70;;
24159;SDS011;62385;41.594;23.808;2022-08-01T06:22:26;8.38;;;6.85;;
24159;SDS011;62385;41.594;23.808;2022-08-01T06:24:52;7.35;;;6.65;;
24159;SDS011;62385;41.594;23.808;2022-08-01T06:27:18;6.97;;;6.38;;
24159;SDS011;62385;41.594;23.808;2022-08-01T06:29:43;7.55;;;6.80;;
24159;SDS011;62385;41.594;23.808;2022-08-01T06:32:09;6.40;;;5.80;;
24159;SDS011;62385;41.594;23.808;2022-08-01T06:34:35;7.20;;;5.70;;
24159;SDS011;62385;41.594;23.808;2022-08-01T06:37:01;10.65;;;6.20;;
24159;SDS011;62385;41.594;23.808;2022-08-01T06:39:26;6.15;;;5.57;;
24159;SDS011;62385;41.594;23.808;2022-08-01T06:41:52;4.45;;;3.90;;
24159;SDS011;62385;41.594;23.808;2022-08-01T06:44:17;4.75;;;4.10;;
24159;SDS011;62385;41.594;23.808;2022-08-01T06:46:44;6.50;;;4.40;;
24159;SDS011;62385;41.594;23.808;2022-08-01T06:49:10;5.10;;;4.03;;
24159;SDS011;62385;41.594;23.808;2022-08-01T06:51:35;9.32;;;4.38;;
24159;SDS011;62385;41.594;23.808;2022-08-01T06:54:01;7.32;;;4.88;;
24159;SDS011;62385;41.594;23.808;2022-08-01T06:56:27;5.47;;;4.70;;
24159;SDS011;62385;41.594;23.808;2022-08-01T06:58:53;5.15;;;4.38;;
24159;SDS011;62385;41.594;23.808;2022-08-01T07:01:21;4.72;;;4.20;;
24159;SDS011;62385;41.594;23.808;2022-08-01T07:03:46;4.60;;;4.15;;
24159;SDS011;62385;41.594;23.808;2022-08-01T07:06:12;5.32;;;4.82;;
24159;SDS011;62385;41.594;23.808;2022-08-01T07:08:40;5.80;;;4.55;;
24159;SDS011;62385;41.594;23.808;2022-08-01T07:11:05;4.50;;;4.10;;
24159;SDS011;62385;41.594;23.808;2022-08-01T07:13:31;5.88;;;4.45;;
24159;SDS011;62385;41.594;23.808;2022-08-01T07:15:57;4.93;;;4.53;;
24159;SDS011;62385;41.594;23.808;2022-08-01T07:18:23;4.63;;;4.03;;
24159;SDS011;62385;41.594;23.808;2022-08-01T07:20:49;5.75;;;4.10;;
24159;SDS011;62385;41.594;23.808;2022-08-01T07:23:15;8.70;;;4.28;;
24159;SDS011;62385;41.594;23.808;2022-08-01T07:25:41;4.00;;;3.67;;
24159;SDS011;62385;41.594;23.808;2022-08-01T07:28:07;4.57;;;4.18;;
24159;SDS011;62385;41.594;23.808;2022-08-01T07:30:33;4.70;;;4.22;;
24159;SDS011;62385;41.594;23.808;2022-08-01T07:32:59;5.50;;;4.10;;
24159;SDS011;62385;41.594;23.808;2022-08-01T07:35:25;7.32;;;4.45;;
24159;SDS011;62385;41.594;23.808;2022-08-01T07:37:51;7.03;;;4.50;;
24159;SDS011;62385;41.594;23.808;2022-08-01T07:40:18;5.43;;;4.50;;
24159;SDS011;62385;41.594;23.808;2022-08-01T07:42:45;6.03;;;4.03;;
24159;SDS011;62385;41.594;23.808;2022-08-01T07:45:30;4.80;;;4.30;;
24159;SDS011;62385;41.594;23.808;2022-08-01T07:47:56;4.30;;;3.90;;
24159;SDS011;62385;41.594;23.808;2022-08-01T07:50:21;5.38;;;4.15;;
24159;SDS011;62385;41.594;23.808;2022-08-01T07:52:47;4.22;;;3.83;;
24159;SDS011;62385;41.594;23.808;2022-08-01T07:55:12;11.13;;;4.07;;
24159;SDS011;62385;41.594;23.808;2022-08-01T07:57:38;4.30;;;3.90;;
24159;SDS011;62385;41.594;23.808;2022-08-01T08:00:05;5.20;;;4.15;;
24159;SDS011;62385;41.594;23.808;2022-08-01T08:02:34;5.30;;;4.75;;
24159;SDS011;62385;41.594;23.808;2022-08-01T08:05:00;5.53;;;4.50;;
24159;SDS011;62385;41.594;23.808;2022-08-01T08:07:25;7.38;;;4.22;;
24159;SDS011;62385;41.594;23.808;2022-08-01T08:09:51;4.30;;;3.90;;
24159;SDS011;62385;41.594;23.808;2022-08-01T08:12:35;4.13;;;3.72;;
24159;SDS011;62385;41.594;23.808;2022-08-01T08:15:01;5.07;;;3.92;;
24159;SDS011;62385;41.594;23.808;2022-08-01T08:17:31;4.85;;;4.07;;
24159;SDS011;62385;41.594;23.808;2022-08-01T08:19:57;5.75;;;4.03;;
24159;SDS011;62385;41.594;23.808;2022-08-01T08:22:23;4.75;;;4.32;;
24159;SDS011;62385;41.594;23.808;2022-08-01T08:24:50;5.13;;;4.47;;
24159;SDS011;62385;41.594;23.808;2022-08-01T08:27:15;5.70;;;4.53;;
24159;SDS011;62385;41.594;23.808;2022-08-01T08:29:41;4.72;;;4.07;;
24159;SDS011;62385;41.594;23.808;2022-08-01T08:32:07;4.07;;;3.67;;
24159;SDS011;62385;41.594;23.808;2022-08-01T08:34:33;5.22;;;4.18;;
24159;SDS011;62385;41.594;23.808;2022-08-01T08:36:59;4.38;;;3.97;;
24159;SDS011;62385;41.594;23.808;2022-08-01T08:39:25;5.00;;;4.50;;
24159;SDS011;62385;41.594;23.808;2022-08-01T08:41:51;5.15;;;4.72;;
24159;SDS011;62385;41.594;23.808;2022-08-01T08:44:18;6.05;;;4.90;;
24159;SDS011;62385;41.594;23.808;2022-08-01T08:46:48;5.43;;;4.93;;
24159;SDS011;62385;41.594;23.808;2022-08-01T08:49:22;5.30;;;4.80;;
24159;SDS011;62385;41.594;23.808;2022-08-01T08:51:49;5.95;;;5.22;;
24159;SDS011;62385;41.594;23.808;2022-08-01T08:54:17;4.55;;;4.13;;
24159;SDS011;62385;41.594;23.808;2022-08-01T08:56:46;5.10;;;4.60;;
24159;SDS011;62385;41.594;23.808;2022-08-01T08:59:12;4.75;;;4.15;;
24159;SDS011;62385;41.594;23.808;2022-08-01T09:01:41;4.88;;;4.47;;
24159;SDS011;62385;41.594;23.808;2022-08-01T09:04:07;7.13;;;4.45;;
24159;SDS011;62385;41.594;23.808;2022-08-01T09:06:33;4.78;;;4.38;;
24159;SDS011;62385;41.594;23.808;2022-08-01T09:08:59;4.47;;;4.07;;
24159;SDS011;62385;41.594;23.808;2022-08-01T09:11:25;4.45;;;4.05;;
24159;SDS011;62385;41.594;23.808;2022-08-01T09:17:05;5.63;;;4.65;;
24159;SDS011;62385;41.594;23.808;2022-08-01T09:19:36;4.72;;;4.22;;
24159;SDS011;62385;41.594;23.808;2022-08-01T09:22:02;4.70;;;4.30;;
24159;SDS011;62385;41.594;23.808;2022-08-01T09:24:31;5.63;;;4.13;;
24159;SDS011;62385;41.594;23.808;2022-08-01T09:26:57;3.97;;;3.58;;
24159;SDS011;62385;41.594;23.808;2022-08-01T09:29:28;5.13;;;2.95;;
24159;SDS011;62385;41.594;23.808;2022-08-01T09:31:55;5.93;;;2.78;;
24159;SDS011;62385;41.594;23.808;2022-08-01T09:34:30;3.65;;;2.53;;
24159;SDS011;62385;41.594;23.808;2022-08-01T09:36:58;2.85;;;2.65;;
24159;SDS011;62385;41.594;23.808;2022-08-01T09:39:27;3.05;;;2.70;;
24159;SDS011;62385;41.594;23.808;2022-08-01T09:42:24;2.85;;;2.15;;
24159;SDS011;62385;41.594;23.808;2022-08-01T09:44:51;2.90;;;2.60;;
24159;SDS011;62385;41.594;23.808;2022-08-01T09:47:18;4.07;;;3.10;;
24159;SDS011;62385;41.594;23.808;2022-08-01T09:49:52;3.20;;;2.92;;
24159;SDS011;62385;41.594;23.808;2022-08-01T09:52:20;3.70;;;3.30;;
24159;SDS011;62385;41.594;23.808;2022-08-01T09:54:55;4.18;;;3.47;;
24159;SDS011;62385;41.594;23.808;2022-08-01T09:57:41;5.45;;;3.47;;
24159;SDS011;62385;41.594;23.808;2022-08-01T10:00:20;4.40;;;4.00;;
24159;SDS011;62385;41.594;23.808;2022-08-01T10:02:45;5.00;;;4.40;;
24159;SDS011;62385;41.594;23.808;2022-08-01T10:05:11;5.38;;;3.90;;
24159;SDS011;62385;41.594;23.808;2022-08-01T10:07:59;5.82;;;3.97;;
24159;SDS011;62385;41.594;23.808;2022-08-01T10:10:28;5.63;;;4.25;;
24159;SDS011;62385;41.594;23.808;2022-08-01T10:12:55;3.75;;;3.40;;
24159;SDS011;62385;41.594;23.808;2022-08-01T10:15:21;4.20;;;3.80;;
24159;SDS011;62385;41.594;23.808;2022-08-01T10:17:58;3.95;;;3.30;;
24159;SDS011;62385;41.594;23.808;2022-08-01T10:20:27;4.72;;;3.17;;
24159;SDS011;62385;41.594;23.808;2022-08-01T10:22:55;5.40;;;3.47;;
24159;SDS011;62385;41.594;23.808;2022-08-01T10:25:33;3.03;;;2.78;;
24159;SDS011;62385;41.594;23.808;2022-08-01T10:28:06;3.45;;;3.15;;
24159;SDS011;62385;41.594;23.808;2022-08-01T10:31:01;4.43;;;3.83;;
24159;SDS011;62385;41.594;23.808;2022-08-01T10:33:27;4.03;;;3.40;;
24159;SDS011;62385;41.594;23.808;2022-08-01T10:35:54;10.57;;;3.45;;
24159;SDS011;62385;41.594;23.808;2022-08-01T10:38:21;3.83;;;2.95;;
24159;SDS011;62385;41.594;23.808;2022-08-01T10:40:48;3.05;;;2.75;;
24159;SDS011;62385;41.594;23.808;2022-08-01T10:43:16;2.70;;;2.50;;
24159;SDS011;62385;41.594;23.808;2022-08-01T10:45:42;3.25;;;2.95;;
24159;SDS011;62385;41.594;23.808;2022-08-01T10:48:10;3.53;;;3.17;;
24159;SDS011;62385;41.594;23.808;2022-08-01T10:50:41;3.45;;;3.15;;
24159;SDS011;62385;41.594;23.808;2022-08-01T10:53:09;3.58;;;2.70;;
24159;SDS011;62385;41.594;23.808;2022-08-01T10:58:26;2.50;;;2.30;;
24159;SDS011;62385;41.594;23.808;2022-08-01T11:08:58;4.22;;;3.03;;
24159;SDS011;62385;41.594;23.808;2022-08-01T11:11:28;3.58;;;2.78;;
24159;SDS011;62385;41.594;23.808;2022-08-01T11:16:37;17.92;;;3.92;;
24159;SDS011;62385;41.594;23.808;2022-08-01T11:19:04;2.67;;;2.47;;
24159;SDS011;62385;41.594;23.808;2022-08-01T11:27:21;4.20;;;3.75;;
24159;SDS011;62385;41.594;23.808;2022-08-01T11:32:51;5.72;;;3.22;;
24159;SDS011;62385;41.594;23.808;2022-08-01T11:38:36;4.50;;;3.50;;
24159;SDS011;62385;41.594;23.808;2022-08-01T11:41:11;4.35;;;3.58;;
24159;SDS011;62385;41.594;23.808;2022-08-01T11:43:56;4.28;;;3.88;;
24159;SDS011;62385;41.594;23.808;2022-08-01T11:49:33;4.30;;;3.85;;
24159;SDS011;62385;41.594;23.808;2022-08-01T11:52:07;4.60;;;4.13;;
24159;SDS011;62385;41.594;23.808;2022-08-01T11:54:38;5.43;;;4.35;;
24159;SDS011;62385;41.594;23.808;2022-08-01T11:57:12;5.53;;;4.15;;
24159;SDS011;62385;41.594;23.808;2022-08-01T11:59:47;10.07;;;4.55;;
24159;SDS011;62385;41.594;23.808;2022-08-01T12:02:18;5.18;;;4.30;;
24159;SDS011;62385;41.594;23.808;2022-08-01T12:04:49;7.53;;;4.07;;
24159;SDS011;62385;41.594;23.808;2022-08-01T12:07:18;5.15;;;4.65;;
24159;SDS011;62385;41.594;23.808;2022-08-01T12:09:45;5.10;;;4.70;;
24159;SDS011;62385;41.594;23.808;2022-08-01T12:12:14;6.75;;;4.18;;
24159;SDS011;62385;41.594;23.808;2022-08-01T12:15:04;5.20;;;4.80;;
24159;SDS011;62385;41.594;23.808;2022-08-01T12:17:33;4.43;;;4.03;;
24159;SDS011;62385;41.594;23.808;2022-08-01T12:20:01;4.50;;;3.22;;
24159;SDS011;62385;41.594;23.808;2022-08-01T12:22:29;3.60;;;3.28;;
24159;SDS011;62385;41.594;23.808;2022-08-01T12:24:55;2.78;;;2.55;;
24159;SDS011;62385;41.594;23.808;2022-08-01T12:27:30;3.10;;;2.90;;
24159;SDS011;62385;41.594;23.808;2022-08-01T12:29:56;5.10;;;3.20;;
24159;SDS011;62385;41.594;23.808;2022-08-01T12:32:30;4.35;;;3.15;;
24159;SDS011;62385;41.594;23.808;2022-08-01T12:35:02;4.50;;;3.38;;
24159;SDS011;62385;41.594;23.808;2022-08-01T12:37:44;5.05;;;3.58;;
24159;SDS011;62385;41.594;23.808;2022-08-01T12:42:48;3.00;;;2.70;;
24159;SDS011;62385;41.594;23.808;2022-08-01T12:45:17;4.80;;;3.20;;
24159;SDS011;62385;41.594;23.808;2022-08-01T12:47:45;3.28;;;2.90;;
24159;SDS011;62385;41.594;23.808;2022-08-01T12:50:14;3.30;;;3.00;;
24159;SDS011;62385;41.594;23.808;2022-08-01T12:52:42;4.22;;;2.60;;
24159;SDS011;62385;41.594;23.808;2022-08-01T12:55:09;3.22;;;2.90;;
24159;SDS011;62385;41.594;23.808;2022-08-01T12:57:40;5.13;;;2.80;;
24159;SDS011;62385;41.594;23.808;2022-08-01T13:00:22;3.50;;;3.20;;
24159;SDS011;62385;41.594;23.808;2022-08-01T13:02:51;2.95;;;2.65;;
24159;SDS011;62385;41.594;23.808;2022-08-01T13:08:17;2.92;;;2.63;;
24159;SDS011;62385;41.594;23.808;2022-08-01T13:10:44;2.95;;;2.75;;
24159;SDS011;62385;41.594;23.808;2022-08-01T13:13:11;3.75;;;2.88;;
24159;SDS011;62385;41.594;23.808;2022-08-01T13:15:39;4.55;;;2.58;;
24159;SDS011;62385;41.594;23.808;2022-08-01T13:21:13;3.42;;;2.45;;
24159;SDS011;62385;41.594;23.808;2022-08-01T13:26:39;2.78;;;2.58;;
24159;SDS011;62385;41.594;23.808;2022-08-01T13:29:43;5.25;;;2.60;;
24159;SDS011;62385;41.594;23.808;2022-08-01T13:32:17;4.40;;;2.28;;
24159;SDS011;62385;41.594;23.808;2022-08-01T13:34:44;5.85;;;2.47;;
24159;SDS011;62385;41.594;23.808;2022-08-01T13:37:10;3.45;;;2.60;;
24159;SDS011;62385;41.594;23.808;2022-08-01T13:39:36;2.85;;;2.20;;
24159;SDS011;62385;41.594;23.808;2022-08-01T13:42:11;2.80;;;2.30;;
24159;SDS011;62385;41.594;23.808;2022-08-01T13:44:38;4.05;;;2.80;;
24159;SDS011;62385;41.594;23.808;2022-08-01T13:47:04;2.72;;;2.38;;
24159;SDS011;62385;41.594;23.808;2022-08-01T13:49:31;3.42;;;2.63;;
24159;SDS011;62385;41.594;23.808;2022-08-01T13:51:57;3.45;;;2.30;;
24159;SDS011;62385;41.594;23.808;2022-08-01T13:54:24;5.20;;;2.75;;
24159;SDS011;62385;41.594;23.808;2022-08-01T13:56:51;3.45;;;2.40;;
24159;SDS011;62385;41.594;23.808;2022-08-01T13:59:17;2.80;;;2.33;;
24159;SDS011;62385;41.594;23.808;2022-08-01T14:01:43;5.32;;;2.42;;
24159;SDS011;62385;41.594;23.808;2022-08-01T14:04:09;4.53;;;2.70;;
24159;SDS011;62385;41.594;23.808;2022-08-01T14:06:35;2.50;;;2.30;;
24159;SDS011;62385;41.594;23.808;2022-08-01T14:09:01;3.78;;;2.17;;
24159;SDS011;62385;41.594;23.808;2022-08-01T14:11:27;2.45;;;1.77;;
24159;SDS011;62385;41.594;23.808;2022-08-01T14:13:53;2.85;;;2.10;;
24159;SDS011;62385;41.594;23.808;2022-08-01T14:16:18;4.50;;;2.53;;
24159;SDS011;62385;41.594;23.808;2022-08-01T14:18:44;2.20;;;2.00;;
24159;SDS011;62385;41.594;23.808;2022-08-01T14:21:10;2.90;;;2.30;;
24159;SDS011;62385;41.594;23.808;2022-08-01T14:23:36;2.40;;;2.20;;
24159;SDS011;62385;41.594;23.808;2022-08-01T14:26:01;3.35;;;2.15;;
24159;SDS011;62385;41.594;23.808;2022-08-01T14:28:27;3.20;;;2.22;;
24159;SDS011;62385;41.594;23.808;2022-08-01T14:30:53;4.05;;;2.20;;
24159;SDS011;62385;41.594;23.808;2022-08-01T14:33:20;3.83;;;2.42;;
24159;SDS011;62385;41.594;23.808;2022-08-01T14:35:46;6.53;;;2.38;;
24159;SDS011;62385;41.594;23.808;2022-08-01T14:38:12;3.75;;;2.53;;
24159;SDS011;62385;41.594;23.808;2022-08-01T14:40:38;3.08;;;2.42;;
24159;SDS011;62385;41.594;23.808;2022-08-01T14:43:05;2.97;;;2.35;;
24159;SDS011;62385;41.594;23.808;2022-08-01T14:45:50;3.75;;;2.13;;
24159;SDS011;62385;41.594;23.808;2022-08-01T14:48:17;4.55;;;2.00;;
24159;SDS011;62385;41.594;23.808;2022-08-01T14:50:43;3.85;;;2.03;;
24159;SDS011;62385;41.594;23.808;2022-08-01T14:53:28;2.38;;;2.17;;
24159;SDS011;62385;41.594;23.808;2022-08-01T14:55:54;3.92;;;2.10;;
24159;SDS011;62385;41.594;23.808;2022-08-01T14:58:20;2.00;;;1.80;;
24159;SDS011;62385;41.594;23.808;2022-08-01T15:01:04;2.30;;;1.95;;
24159;SDS011;62385;41.594;23.808;2022-08-01T15:03:30;5.00;;;2.15;;
24159;SDS011;62385;41.594;23.808;2022-08-01T15:05:56;2.63;;;2.15;;
24159;SDS011;62385;41.594;23.808;2022-08-01T15:08:23;2.08;;;1.83;;
24159;SDS011;62385;41.594;23.808;2022-08-01T15:10:49;2.70;;;2.15;;
24159;SDS011;62385;41.594;23.808;2022-08-01T15:13:14;2.47;;;1.83;;
24159;SDS011;62385;41.594;23.808;2022-08-01T15:15:40;2.17;;;1.98;;
24159;SDS011;62385;41.594;23.808;2022-08-01T15:18:24;3.65;;;2.30;;
24159;SDS011;62385;41.594;23.808;2022-08-01T15:20:49;3.58;;;2.13;;
24159;SDS011;62385;41.594;23.808;2022-08-01T15:23:15;4.07;;;1.90;;
24159;SDS011;62385;41.594;23.808;2022-08-01T15:25:40;3.55;;;2.30;;
24159;SDS011;62385;41.594;23.808;2022-08-01T15:28:06;3.00;;;1.98;;